createdAt,value
2023-05-17T00:00:42.886Z,100201.03
2023-05-17T00:03:09.985Z,100211.75
2023-05-17T00:05:36.908Z,100212.41
2023-05-17T00:08:05.956Z,100214.22
2023-05-17T00:10:34.210Z,100217.09
2023-05-17T00:13:01.348Z,100214.59
2023-05-17T00:15:28.480Z,100222.81
2023-05-17T00:17:55.707Z,100217.88
2023-05-17T00:20:23.882Z,100225.34
2023-05-17T00:22:50.930Z,100232.00
2023-05-17T00:25:19.283Z,100236.00
2023-05-17T00:27:46.261Z,100229.88
2023-05-17T00:30:13.792Z,100232.81
2023-05-17T00:32:40.786Z,100234.13
2023-05-17T00:35:08.226Z,100239.03
2023-05-17T00:37:35.284Z,100243.25
2023-05-17T00:40:05.032Z,100239.72
2023-05-17T00:42:33.488Z,100245.63
2023-05-17T00:45:00.705Z,100252.25
2023-05-17T00:47:28.132Z,100253.97
2023-05-17T00:49:55.584Z,100248.59
2023-05-17T00:52:22.730Z,100251.56
2023-05-17T00:54:52.431Z,100260.75
2023-05-17T00:57:20.101Z,100251.28
2023-05-17T00:59:52.181Z,100257.31
2023-05-17T01:02:19.319Z,100256.66
2023-05-17T01:04:48.074Z,100253.81
2023-05-17T01:07:15.995Z,100261.09
2023-05-17T01:09:47.085Z,100260.13
2023-05-17T01:12:32.529Z,100259.50
2023-05-17T01:15:14.868Z,100266.94
2023-05-17T01:17:54.391Z,100267.22
2023-05-17T01:20:28.563Z,100264.72
2023-05-17T01:23:20.278Z,100275.66
2023-05-17T01:26:07.817Z,100273.03
2023-05-17T01:28:39.269Z,100275.72
2023-05-17T01:31:08.817Z,100282.41
2023-05-17T01:33:38.660Z,100283.06
2023-05-17T01:36:07.249Z,100279.81
2023-05-17T01:38:34.467Z,100280.75
2023-05-17T01:41:15.449Z,100273.28
2023-05-17T01:43:49.790Z,100283.94
2023-05-17T01:46:31.985Z,100279.03
2023-05-17T01:49:10.987Z,100276.66
2023-05-17T01:51:47.879Z,100281.50
2023-05-17T01:54:21.699Z,100284.63
2023-05-17T01:56:57.459Z,100283.63
2023-05-17T01:59:29.564Z,100278.81
2023-05-17T02:02:01.537Z,100285.16
2023-05-17T02:04:31.278Z,100285.75
2023-05-17T02:07:02.247Z,100288.69
2023-05-17T02:09:29.438Z,100292.22
2023-05-17T02:11:56.422Z,100293.22
2023-05-17T02:14:25.043Z,100290.50
2023-05-17T02:16:52.386Z,100299.84
2023-05-17T02:19:19.370Z,100292.28
2023-05-17T02:21:46.492Z,100292.94
2023-05-17T02:24:41.678Z,100302.38
2023-05-17T02:27:08.714Z,100299.03
2023-05-17T02:29:37.243Z,100302.06
2023-05-17T02:32:06.503Z,100298.38
2023-05-17T02:34:33.475Z,100296.47
2023-05-17T02:37:00.372Z,100292.88
2023-05-17T02:39:27.427Z,100305.97
2023-05-17T02:41:54.511Z,100304.00
2023-05-17T02:44:21.544Z,100303.69
2023-05-17T02:46:49.937Z,100305.19
2023-05-17T02:49:17.164Z,100306.19
2023-05-17T02:51:44.150Z,100313.44
2023-05-17T02:54:11.522Z,100308.69
2023-05-17T02:56:38.593Z,100305.03
2023-05-17T02:59:05.755Z,100313.19
2023-05-17T03:01:34.254Z,100320.66
2023-05-17T03:04:03.013Z,100318.47
2023-05-17T03:06:30.276Z,100320.44
2023-05-17T03:13:06.516Z,100322.50
2023-05-17T03:15:37.789Z,100322.88
2023-05-17T03:18:05.382Z,100324.03
2023-05-17T03:20:33.885Z,100325.81
2023-05-17T03:23:00.908Z,100322.09
2023-05-17T03:25:28.076Z,100330.66
2023-05-17T03:27:55.952Z,100326.25
2023-05-17T03:30:23.118Z,100329.63
2023-05-17T03:32:50.494Z,100343.72
2023-05-17T03:35:17.508Z,100344.91
2023-05-17T03:37:50.206Z,100333.34
2023-05-17T03:40:17.787Z,100340.38
2023-05-17T03:42:44.933Z,100342.94
2023-05-17T03:45:13.071Z,100346.25
2023-05-17T03:47:40.197Z,100346.88
2023-05-17T03:50:09.273Z,100347.00
2023-05-17T03:52:37.026Z,100350.19
2023-05-17T03:55:06.091Z,100349.06
2023-05-17T03:57:33.687Z,100347.81
2023-05-17T04:00:02.605Z,100353.31
2023-05-17T04:02:31.132Z,100351.50
2023-05-17T04:04:58.173Z,100353.28
2023-05-17T04:07:25.209Z,100361.63
2023-05-17T04:09:52.512Z,100373.13
2023-05-17T04:12:21.299Z,100369.00
2023-05-17T04:14:48.363Z,100363.09
2023-05-17T04:17:16.885Z,100367.38
2023-05-17T04:19:45.734Z,100374.00
2023-05-17T04:22:12.990Z,100374.72
2023-05-17T04:24:39.980Z,100382.00
2023-05-17T04:27:07.025Z,100371.34
2023-05-17T04:29:36.292Z,100382.03
2023-05-17T04:32:04.206Z,100385.56
2023-05-17T04:34:31.165Z,100386.22
2023-05-17T04:36:58.218Z,100384.22
2023-05-17T04:39:26.405Z,100390.84
2023-05-17T04:41:54.147Z,100386.88
2023-05-17T04:44:21.292Z,100389.56
2023-05-17T04:46:49.500Z,100396.66
2023-05-17T04:49:16.485Z,100405.00
2023-05-17T04:51:43.639Z,100403.88
2023-05-17T04:54:11.881Z,100413.53
2023-05-17T04:56:39.150Z,100405.28
2023-05-17T04:59:11.448Z,100412.34
2023-05-17T05:01:38.366Z,100413.91
2023-05-17T05:04:07.449Z,100411.31
2023-05-17T05:06:39.910Z,100415.63
2023-05-17T05:09:07.069Z,100416.69
2023-05-17T05:11:36.533Z,100422.44
2023-05-17T05:14:04.552Z,100415.88
2023-05-17T05:16:31.411Z,100427.97
2023-05-17T05:18:58.509Z,100431.13
2023-05-17T05:21:27.044Z,100434.34
2023-05-17T05:24:19.883Z,100439.16
2023-05-17T05:26:47.756Z,100438.97
2023-05-17T05:29:18.519Z,100440.16
2023-05-17T05:32:12.119Z,100441.53
2023-05-17T05:34:44.633Z,100447.31
2023-05-17T05:37:13.182Z,100442.31
2023-05-17T05:39:40.087Z,100447.09
2023-05-17T05:42:58.588Z,100438.22
2023-05-17T05:45:25.646Z,100445.44
2023-05-17T05:47:54.906Z,100451.41
2023-05-17T05:50:22.432Z,100450.56
2023-05-17T05:53:44.636Z,100446.97
2023-05-17T05:56:12.923Z,100444.28
2023-05-17T05:58:40.222Z,100448.09
2023-05-17T06:01:45.401Z,100449.63
2023-05-17T06:04:12.664Z,100452.97
2023-05-17T06:06:40.638Z,100454.94
2023-05-17T06:09:08.890Z,100458.25
2023-05-17T06:11:35.787Z,100466.28
2023-05-17T06:14:02.649Z,100457.84
2023-05-17T06:16:30.431Z,100458.38
2023-05-17T06:18:57.355Z,100461.56
2023-05-17T06:21:24.309Z,100461.25
2023-05-17T06:23:51.588Z,100469.41
2023-05-17T06:26:19.827Z,100475.66
2023-05-17T06:28:47.243Z,100473.72
2023-05-17T06:38:34.565Z,100484.03
2023-05-17T06:41:01.454Z,100477.88
2023-05-17T06:43:29.714Z,100483.34
2023-05-17T06:45:56.951Z,100475.53
2023-05-17T06:48:24.622Z,100485.75
2023-05-17T06:50:53.338Z,100485.28
2023-05-17T06:53:20.676Z,100488.47
2023-05-17T06:55:47.678Z,100499.84
2023-05-17T06:58:14.562Z,100494.09
2023-05-17T07:00:59.141Z,100495.69
2023-05-17T07:03:26.427Z,100490.84
2023-05-17T07:05:53.403Z,100487.88
2023-05-17T07:08:20.661Z,100480.66
2023-05-17T07:11:12.997Z,100488.72
2023-05-17T07:13:40.926Z,100484.63
2023-05-17T07:16:09.505Z,100500.34
2023-05-17T07:18:36.611Z,100497.31
2023-05-17T07:21:32.650Z,100501.78
2023-05-17T07:24:00.795Z,100484.75
2023-05-17T07:26:27.971Z,100492.00
2023-05-17T07:29:48.823Z,100493.22
2023-05-17T07:32:18.179Z,100499.66
2023-05-17T07:34:45.359Z,100488.06
2023-05-17T07:37:12.448Z,100484.13
2023-05-17T07:39:39.693Z,100498.34
2023-05-17T07:42:07.676Z,100483.78
2023-05-17T07:44:34.777Z,100494.34
2023-05-17T07:48:16.900Z,100496.38
2023-05-17T07:50:45.806Z,100494.78
2023-05-17T07:54:38.056Z,100496.63
2023-05-17T07:57:05.462Z,100491.28
2023-05-17T07:59:32.475Z,100496.00
2023-05-17T08:01:59.524Z,100500.94
2023-05-17T08:04:26.497Z,100492.69
2023-05-17T08:06:54.735Z,100488.44
2023-05-17T08:09:21.877Z,100499.59
2023-05-17T08:11:48.737Z,100500.94
2023-05-17T08:14:16.811Z,100497.75
2023-05-17T08:16:46.299Z,100493.72
2023-05-17T08:19:14.924Z,100485.00
2023-05-17T08:22:56.919Z,100494.25
2023-05-17T08:25:25.279Z,100482.97
2023-05-17T08:27:52.194Z,100485.03
2023-05-17T08:30:28.579Z,100491.81
2023-05-17T08:32:56.304Z,100493.25
2023-05-17T08:35:25.511Z,100487.91
2023-05-17T08:37:54.060Z,100489.97
2023-05-17T08:40:57.442Z,100476.91
2023-05-17T08:43:26.873Z,100482.41
2023-05-17T08:45:55.095Z,100484.53
2023-05-17T08:48:22.113Z,100474.22
2023-05-17T08:50:52.929Z,100476.53
2023-05-17T08:53:20.176Z,100468.50
2023-05-17T08:55:47.580Z,100470.16
2023-05-17T08:58:23.382Z,100468.22
2023-05-17T09:00:52.521Z,100476.72
2023-05-17T09:03:21.827Z,100478.66
2023-05-17T09:05:51.311Z,100481.06
2023-05-17T09:08:18.974Z,100480.44
2023-05-17T09:10:46.022Z,100474.31
2023-05-17T09:13:13.278Z,100475.16
2023-05-17T09:16:13.300Z,100477.38
2023-05-17T09:18:41.992Z,100473.41
2023-05-17T09:21:13.486Z,100476.94
2023-05-17T09:23:40.798Z,100476.66
2023-05-17T09:26:08.083Z,100469.63
2023-05-17T09:28:42.289Z,100471.81
2023-05-17T09:31:12.233Z,100473.56
2023-05-17T09:33:43.845Z,100477.13
2023-05-17T09:36:19.971Z,100485.41
2023-05-17T09:38:55.819Z,100486.75
2023-05-17T09:41:26.709Z,100487.72
2023-05-17T09:43:58.044Z,100494.00
2023-05-17T09:46:26.453Z,100492.00
2023-05-17T09:48:55.899Z,100475.00
2023-05-17T09:51:34.318Z,100491.00
2023-05-17T09:54:01.332Z,100491.13
2023-05-17T09:56:29.440Z,100489.06
2023-05-17T09:58:56.807Z,100497.75
2023-05-17T10:01:29.242Z,100494.91
2023-05-17T10:04:00.660Z,100496.13
2023-05-17T10:06:45.964Z,100505.81
2023-05-17T10:09:22.278Z,100508.47
2023-05-17T10:11:52.863Z,100505.50
2023-05-17T10:14:28.664Z,100500.22
2023-05-17T10:16:58.478Z,100501.09
2023-05-17T10:19:26.569Z,100504.38
2023-05-17T10:21:55.236Z,100515.69
2023-05-17T10:24:26.922Z,100516.28
2023-05-17T10:26:55.505Z,100510.16
2023-05-17T10:29:23.721Z,100509.84
2023-05-17T10:31:50.907Z,100511.84
2023-05-17T10:34:20.877Z,100507.94
2023-05-17T10:36:50.985Z,100504.00
2023-05-17T10:39:18.237Z,100504.72
2023-05-17T10:41:48.747Z,100503.50
2023-05-17T10:44:18.039Z,100504.75
2023-05-17T10:46:53.553Z,100506.41
2023-05-17T10:49:25.246Z,100508.22
2023-05-17T10:51:55.527Z,100503.31
2023-05-17T10:54:35.812Z,100514.03
2023-05-17T10:57:07.857Z,100515.41
2023-05-17T10:59:36.075Z,100514.97
2023-05-17T11:02:07.151Z,100508.31
2023-05-17T11:04:39.013Z,100508.00
2023-05-17T11:07:22.699Z,100513.59
2023-05-17T11:09:53.600Z,100512.16
2023-05-17T11:12:34.255Z,100518.22
2023-05-17T11:15:08.437Z,100511.09
2023-05-17T11:17:47.060Z,100509.28
2023-05-17T11:20:34.135Z,100522.22
2023-05-17T11:23:03.646Z,100517.22
2023-05-17T11:25:33.120Z,100518.53
2023-05-17T11:28:00.169Z,100505.81
2023-05-17T11:30:31.038Z,100518.97
2023-05-17T11:33:03.662Z,100511.88
2023-05-17T11:35:38.519Z,100521.53
2023-05-17T11:38:16.952Z,100507.41
2023-05-17T11:40:45.611Z,100510.53
2023-05-17T11:43:15.256Z,100512.91
2023-05-17T11:45:44.269Z,100509.34
2023-05-17T11:48:13.330Z,100508.66
2023-05-17T11:50:43.441Z,100505.31
2023-05-17T11:53:12.908Z,100491.91
2023-05-17T11:55:42.808Z,100493.75
2023-05-17T11:58:11.949Z,100489.63
2023-05-17T12:00:40.811Z,100496.44
2023-05-17T12:03:22.022Z,100498.44
2023-05-17T12:06:02.992Z,100498.78
2023-05-17T12:08:32.302Z,100499.66
2023-05-17T12:10:59.487Z,100497.66
2023-05-17T12:13:29.222Z,100497.34
2023-05-17T12:16:00.871Z,100496.16
2023-05-17T12:18:36.326Z,100488.25
2023-05-17T12:21:06.387Z,100499.28
2023-05-17T12:23:36.474Z,100488.16
2023-05-17T12:26:09.862Z,100502.50
2023-05-17T12:28:41.148Z,100491.25
2023-05-17T12:31:12.179Z,100496.91
2023-05-17T12:33:42.440Z,100486.25
2023-05-17T12:36:12.582Z,100481.41
2023-05-17T12:38:43.389Z,100481.19
2023-05-17T12:41:12.823Z,100481.41
2023-05-17T12:43:40.639Z,100479.06
2023-05-17T12:46:10.690Z,100476.00
2023-05-17T12:48:39.953Z,100475.84
2023-05-17T12:51:11.937Z,100473.69
2023-05-17T12:53:42.621Z,100473.84
2023-05-17T12:56:16.902Z,100462.19
2023-05-17T12:58:44.110Z,100464.69
2023-05-17T13:01:11.558Z,100466.59
2023-05-17T13:03:38.684Z,100462.22
2023-05-17T13:06:09.402Z,100458.13
2023-05-17T13:08:38.437Z,100463.41
2023-05-17T13:11:11.210Z,100466.47
2023-05-17T13:13:38.407Z,100453.91
2023-05-17T13:16:06.513Z,100462.81
2023-05-17T13:18:51.376Z,100467.31
2023-05-17T13:21:20.267Z,100461.50
2023-05-17T13:23:50.642Z,100460.63
2023-05-17T13:26:19.452Z,100464.56
2023-05-17T13:28:46.711Z,100466.59
2023-05-17T13:31:13.817Z,100461.94
2023-05-17T13:33:41.108Z,100451.84
2023-05-17T13:36:08.438Z,100458.72
2023-05-17T13:38:36.321Z,100459.00
2023-05-17T13:41:05.568Z,100463.06
2023-05-17T13:43:33.297Z,100457.00
2023-05-17T13:46:01.538Z,100466.66
2023-05-17T13:48:30.311Z,100465.84
2023-05-17T13:50:57.363Z,100459.81
2023-05-17T13:53:25.585Z,100454.00
2023-05-17T13:55:52.541Z,100449.94
2023-05-17T13:58:20.957Z,100451.63
2023-05-17T14:00:48.257Z,100457.41
2023-05-17T14:03:15.376Z,100451.47
2023-05-17T14:05:43.274Z,100454.38
2023-05-17T14:08:11.296Z,100449.00
2023-05-17T14:10:38.250Z,100446.47
2023-05-17T14:13:06.255Z,100448.84
2023-05-17T14:15:36.301Z,100443.06
2023-05-17T14:18:03.369Z,100450.44
2023-05-17T14:20:30.925Z,100451.72
2023-05-17T14:22:58.585Z,100442.00
2023-05-17T14:25:26.450Z,100448.66
2023-05-17T14:27:53.396Z,100453.81
2023-05-17T14:30:21.864Z,100442.00
2023-05-17T14:32:51.597Z,100444.19
2023-05-17T14:35:19.262Z,100446.31
2023-05-17T14:38:13.400Z,100445.88
2023-05-17T14:40:40.740Z,100441.78
2023-05-17T14:43:07.677Z,100439.41
2023-05-17T14:45:34.938Z,100446.69
2023-05-17T14:48:03.392Z,100449.94
2023-05-17T14:50:30.690Z,100443.47
2023-05-17T14:52:57.722Z,100441.84
2023-05-17T14:55:24.731Z,100438.69
2023-05-17T14:57:52.796Z,100440.66
2023-05-17T15:00:21.532Z,100445.38
2023-05-17T15:02:48.579Z,100437.66
2023-05-17T15:05:17.278Z,100443.34
2023-05-17T15:07:45.631Z,100444.00
2023-05-17T15:10:13.450Z,100445.34
2023-05-17T15:12:40.543Z,100442.22
2023-05-17T15:15:09.685Z,100443.63
2023-05-17T15:17:36.695Z,100439.06
2023-05-17T15:20:04.803Z,100441.53
2023-05-17T15:22:34.521Z,100435.81
2023-05-17T15:25:02.320Z,100435.44
2023-05-17T15:27:30.710Z,100436.06
2023-05-17T15:29:57.707Z,100423.41
2023-05-17T15:32:24.778Z,100425.41
2023-05-17T15:34:51.851Z,100426.00
2023-05-17T15:37:18.900Z,100412.13
2023-05-17T15:39:48.031Z,100424.34
2023-05-17T15:42:14.984Z,100423.88
2023-05-17T15:44:43.403Z,100421.50
2023-05-17T15:47:10.629Z,100427.28
2023-05-17T15:49:37.565Z,100429.97
2023-05-17T15:52:07.533Z,100426.38
2023-05-17T15:54:34.541Z,100431.81
2023-05-17T15:57:11.872Z,100422.97
2023-05-17T15:59:43.923Z,100427.91
2023-05-17T16:02:11.051Z,100433.19
2023-05-17T16:04:38.494Z,100429.06
2023-05-17T16:07:06.337Z,100415.25
2023-05-17T16:09:44.905Z,100422.69
2023-05-17T16:12:32.847Z,100424.97
2023-05-17T16:15:00.203Z,100418.63
2023-05-17T16:17:27.527Z,100418.66
2023-05-17T16:19:55.630Z,100414.88
2023-05-17T16:22:22.640Z,100415.09
2023-05-17T16:24:52.316Z,100422.06
2023-05-17T16:27:19.828Z,100418.41
2023-05-17T16:29:48.182Z,100413.97
2023-05-17T16:32:15.799Z,100411.69
2023-05-17T16:34:42.956Z,100409.09
2023-05-17T16:37:09.968Z,100415.88
2023-05-17T16:39:36.840Z,100420.50
2023-05-17T16:42:05.368Z,100415.88
2023-05-17T16:44:32.579Z,100420.19
2023-05-17T16:47:01.578Z,100417.88
2023-05-17T16:49:28.562Z,100413.69
2023-05-17T16:51:55.806Z,100414.72
2023-05-17T16:54:22.775Z,100406.22
2023-05-17T16:56:50.635Z,100404.16
2023-05-17T16:59:17.621Z,100412.16
2023-05-17T17:01:45.026Z,100404.31
2023-05-17T17:04:13.498Z,100408.53
2023-05-17T17:06:41.329Z,100408.13
2023-05-17T17:09:08.479Z,100399.50
2023-05-17T17:11:35.343Z,100400.00
2023-05-17T17:14:02.388Z,100407.34
2023-05-17T17:16:29.525Z,100404.47
2023-05-17T17:18:57.640Z,100410.31
2023-05-17T17:21:26.585Z,100417.00
2023-05-17T17:23:53.489Z,100418.84
2023-05-17T17:26:20.833Z,100416.53
2023-05-17T17:28:47.813Z,100421.63
2023-05-17T17:31:15.364Z,100417.66
2023-05-17T17:33:42.310Z,100415.28
2023-05-17T17:36:09.637Z,100410.16
2023-05-17T17:38:38.947Z,100405.25
2023-05-17T17:41:06.015Z,100410.66
2023-05-17T17:43:38.930Z,100407.50
2023-05-17T17:46:05.909Z,100416.25
2023-05-17T17:48:32.930Z,100419.34
2023-05-17T17:51:00.034Z,100419.13
2023-05-17T17:53:27.093Z,100425.00
2023-05-17T17:55:56.964Z,100424.03
2023-05-17T17:58:24.884Z,100420.03
2023-05-17T18:00:51.937Z,100420.69
2023-05-17T18:03:19.112Z,100417.75
2023-05-17T18:05:46.853Z,100421.59
2023-05-17T18:08:14.356Z,100424.13
2023-05-17T18:10:41.281Z,100419.34
2023-05-17T18:13:09.702Z,100421.25
2023-05-17T18:15:37.870Z,100419.56
2023-05-17T18:18:04.863Z,100419.75
2023-05-17T18:20:32.001Z,100422.28
2023-05-17T18:23:00.152Z,100421.31
2023-05-17T18:25:27.202Z,100426.78
2023-05-17T18:27:54.043Z,100418.91
2023-05-17T18:30:22.354Z,100426.44
2023-05-17T18:32:49.392Z,100426.09
2023-05-17T18:35:16.355Z,100424.28
2023-05-17T18:37:43.217Z,100427.63
2023-05-17T18:40:11.855Z,100429.34
2023-05-17T18:42:38.893Z,100427.91
2023-05-17T18:45:07.638Z,100428.94
2023-05-17T18:47:35.893Z,100430.84
2023-05-17T18:50:03.753Z,100430.44
2023-05-17T18:52:30.647Z,100433.88
2023-05-17T18:55:43.367Z,100439.50
2023-05-17T18:58:10.271Z,100445.75
2023-05-17T19:00:37.204Z,100448.53
2023-05-17T19:03:05.714Z,100446.63
2023-05-17T19:05:32.644Z,100446.25
2023-05-17T19:07:59.704Z,100449.56
2023-05-17T19:10:26.779Z,100458.69
2023-05-17T19:12:53.928Z,100449.09
2023-05-17T19:15:20.843Z,100453.69
2023-05-17T19:17:48.066Z,100457.88
2023-05-17T19:20:17.587Z,100455.75
2023-05-17T19:22:45.450Z,100465.59
2023-05-17T19:25:13.394Z,100462.03
2023-05-17T19:27:41.445Z,100469.13
2023-05-17T19:30:09.715Z,100466.41
2023-05-17T19:32:36.871Z,100478.31
2023-05-17T19:35:04.389Z,100471.66
2023-05-17T19:37:32.829Z,100476.28
2023-05-17T19:39:59.821Z,100481.72
2023-05-17T19:42:26.867Z,100484.81
2023-05-17T19:44:53.781Z,100481.28
2023-05-17T19:47:20.906Z,100482.53
2023-05-17T19:49:48.033Z,100481.03
2023-05-17T19:52:15.383Z,100486.00
2023-05-17T19:54:43.728Z,100486.81
2023-05-17T19:57:10.714Z,100485.75
2023-05-17T19:59:37.609Z,100478.16
2023-05-17T20:02:05.434Z,100476.88
2023-05-17T20:05:25.977Z,100480.88
2023-05-17T20:08:04.930Z,100481.69
2023-05-17T20:10:33.942Z,100482.06
2023-05-17T20:13:12.586Z,100480.81
2023-05-17T20:15:40.015Z,100480.53
2023-05-17T20:18:06.971Z,100482.16
2023-05-17T20:20:34.810Z,100482.53
2023-05-17T20:23:01.732Z,100479.63
2023-05-17T20:25:30.165Z,100486.97
2023-05-17T20:27:58.383Z,100498.69
2023-05-17T20:30:25.350Z,100488.09
2023-05-17T20:32:52.303Z,100489.19
2023-05-17T20:35:19.991Z,100482.53
2023-05-17T20:37:46.856Z,100491.25
2023-05-17T20:40:13.965Z,100487.88
2023-05-17T20:42:41.015Z,100485.69
2023-05-17T20:45:12.039Z,100488.09
2023-05-17T20:47:40.184Z,100483.66
2023-05-17T20:50:09.365Z,100481.81
2023-05-17T20:52:39.622Z,100487.59
2023-05-17T20:55:08.961Z,100494.06
2023-05-17T20:57:35.909Z,100485.03
2023-05-17T21:00:03.199Z,100502.31
2023-05-17T21:02:32.773Z,100497.03
2023-05-17T21:04:59.732Z,100494.34
2023-05-17T21:07:26.829Z,100491.78
2023-05-17T21:09:53.738Z,100491.88
2023-05-17T21:12:23.175Z,100492.41
2023-05-17T21:15:04.317Z,100485.59
2023-05-17T21:17:39.634Z,100493.88
2023-05-17T21:20:08.456Z,100498.44
2023-05-17T21:22:35.271Z,100499.03
2023-05-17T21:28:08.069Z,100500.53
2023-05-17T21:30:35.492Z,100500.44
2023-05-17T21:33:03.972Z,100502.13
2023-05-17T21:35:31.016Z,100501.09
2023-05-17T21:37:57.952Z,100499.28
2023-05-17T21:40:25.149Z,100501.16
2023-05-17T21:42:52.050Z,100490.38
2023-05-17T21:45:19.046Z,100490.59
2023-05-17T21:47:47.428Z,100494.41
2023-05-17T21:50:15.936Z,100494.59
2023-05-17T21:52:42.922Z,100495.44
2023-05-17T21:55:10.021Z,100489.44
2023-05-17T21:57:37.158Z,100491.69
2023-05-17T22:00:05.886Z,100503.81
2023-05-17T22:02:35.155Z,100497.84
2023-05-17T22:05:02.404Z,100504.56
2023-05-17T22:07:30.671Z,100500.47
2023-05-17T22:09:57.619Z,100501.75
2023-05-17T22:12:24.600Z,100506.59
2023-05-17T22:14:52.024Z,100506.69
2023-05-17T22:17:19.269Z,100496.91
2023-05-17T22:19:46.106Z,100514.22
2023-05-17T22:22:13.279Z,100496.59
2023-05-17T22:24:41.617Z,100504.50
2023-05-17T22:27:08.655Z,100495.34
2023-05-17T22:29:35.759Z,100497.88
2023-05-17T22:32:02.679Z,100490.56
2023-05-17T22:34:29.673Z,100501.09
2023-05-17T22:36:56.597Z,100497.31
2023-05-17T22:39:23.545Z,100503.28
2023-05-17T22:41:52.028Z,100505.13
2023-05-17T22:44:20.076Z,100510.34
2023-05-17T22:46:49.297Z,100504.28
2023-05-17T22:49:16.385Z,100506.72
2023-05-17T22:51:43.300Z,100499.66
2023-05-17T22:54:10.318Z,100504.78
2023-05-17T22:56:37.275Z,100504.34
2023-05-17T22:59:05.575Z,100494.31
2023-05-17T23:01:32.449Z,100491.72
2023-05-17T23:03:59.417Z,100495.44
2023-05-17T23:06:26.369Z,100490.69
2023-05-17T23:08:53.215Z,100492.09
2023-05-17T23:11:20.182Z,100492.75
2023-05-17T23:13:47.108Z,100488.28
2023-05-17T23:16:15.352Z,100491.72
2023-05-17T23:18:42.442Z,100483.06
2023-05-17T23:21:09.461Z,100487.69
2023-05-17T23:23:36.535Z,100480.72
2023-05-17T23:26:03.598Z,100488.06
2023-05-17T23:28:31.698Z,100483.31
2023-05-17T23:30:58.879Z,100483.41
2023-05-17T23:33:27.219Z,100486.47
2023-05-17T23:35:54.166Z,100491.66
2023-05-17T23:38:21.327Z,100497.19
2023-05-17T23:40:48.349Z,100497.44
2023-05-17T23:43:15.257Z,100494.09
2023-05-17T23:45:42.145Z,100493.72
2023-05-17T23:48:09.083Z,100496.78
2023-05-17T23:50:39.588Z,100491.78
2023-05-17T23:53:06.790Z,100488.94
2023-05-17T23:55:33.741Z,100482.06
2023-05-17T23:58:00.685Z,100491.88
